^^
Station Historical Data
Daily Summary for January 12, 2018 Units:  Both    English   Metric
« Previous Day
Next Day »
Daily Weekly Monthly Yearly Custom
  High: Low: Average:
Temperature: TemperatureF °F /  -17.8 °C 71.1 °F /  21.7 °C 75.1 °F /  23.9 °C
Dew Point: DewpointF °F /  -17.8 °C 49.1 °F /  9.5 °C 50.3 °F /  10.2 °C
Humidity: Humidity% 34% 41%
Wind Speed: WindSpeedMPHmph /  0km/h - 5.2mph /  8.4km/h
Wind Gust: WindSpeedGustMPHmph /  0km/h - -
Wind- - SSE
Pressure: PressureIn in /  0 hPa 29.64 in /  1003.6 hPa -
Precipitation: 0.00 in /  0 mm    
Historical Graphs
 
 
Tabular Data for January 12, 2018
Time Temperature Dew Point Pressure Wind Wind Speed Wind Gust Humidity Rainfall Rate (Hourly) solar Conditions
TemperatureF °F /  -17.8 °C DewpointF °F /  -17.8 °C PressureInin /  0hPa Calm     Humidity% HourlyPrecipInin /  0mm SoftwareType W/m2 Conditions
09:06 76.3 °F /  24.6 °C 49.5 °F /  9.7 °C 29.70in /  1005.6hPa NNE 4.9mph /  7.9km/h 6.0mph /  9.7km/h 39% 0.00in /  0mm meteobridge W/m2
09:18 76.6 °F /  24.8 °C 49.8 °F /  9.9 °C 29.70in /  1005.6hPa Calm   5.0mph /  8km/h 39% 0.00in /  0mm meteobridge W/m2
09:24 77.4 °F /  25.2 °C 50.5 °F /  10.3 °C 29.70in /  1005.6hPa ENE 6.0mph /  9.7km/h 10.0mph /  16.1km/h 39% 0.00in /  0mm meteobridge W/m2
09:33 77.5 °F /  25.3 °C 50.5 °F /  10.3 °C 29.70in /  1005.6hPa NE 6.0mph /  9.7km/h 6.0mph /  9.7km/h 39% 0.00in /  0mm meteobridge W/m2
09:45 77.2 °F /  25.1 °C 50.4 °F /  10.2 °C 29.70in /  1005.6hPa NE 2.9mph /  4.7km/h 13.0mph /  20.9km/h 39% 0.00in /  0mm meteobridge W/m2
09:57 78.4 °F /  25.8 °C 50.7 °F /  10.4 °C 29.70in /  1005.6hPa NNE 6.0mph /  9.7km/h 11.0mph /  17.7km/h 38% 0.00in /  0mm meteobridge W/m2
10:03 77.7 °F /  25.4 °C 50.7 °F /  10.4 °C 29.69in /  1005.3hPa ENE 10.1mph /  16.3km/h 13.0mph /  20.9km/h 39% 0.00in /  0mm meteobridge W/m2
10:13 77.4 °F /  25.2 °C 50.5 °F /  10.3 °C 29.70in /  1005.6hPa NE 4.9mph /  7.9km/h 11.0mph /  17.7km/h 39% 0.00in /  0mm meteobridge W/m2
10:20 77.7 °F /  25.4 °C 50.0 °F /  10 °C 29.70in /  1005.6hPa NNE 8.9mph /  14.3km/h 15.0mph /  24.1km/h 38% 0.00in /  0mm meteobridge W/m2
10:26 78.1 °F /  25.6 °C 49.6 °F /  9.8 °C 29.70in /  1005.6hPa NE 4.9mph /  7.9km/h 6.0mph /  9.7km/h 37% 0.00in /  0mm meteobridge W/m2
10:32 79.3 °F /  26.3 °C 50.7 °F /  10.4 °C 29.70in /  1005.6hPa ESE 4.9mph /  7.9km/h 8.0mph /  12.9km/h 37% 0.00in /  0mm meteobridge W/m2
10:44 80.8 °F /  27.1 °C 50.5 °F /  10.3 °C 29.70in /  1005.6hPa NNE 13.0mph /  20.9km/h 16.0mph /  25.7km/h 35% 0.00in /  0mm meteobridge W/m2
10:50 80.2 °F /  26.8 °C 50.9 °F /  10.5 °C 29.70in /  1005.6hPa ENE 4.0mph /  6.4km/h 9.0mph /  14.5km/h 36% 0.00in /  0mm meteobridge W/m2
10:56 81.0 °F /  27.2 °C 50.7 °F /  10.4 °C 29.69in /  1005.3hPa NE 16.1mph /  25.9km/h 18.0mph /  29km/h 35% 0.00in /  0mm meteobridge W/m2
11:02 79.5 °F /  26.4 °C 50.2 °F /  10.1 °C 29.69in /  1005.3hPa NNE 10.1mph /  16.3km/h 15.0mph /  24.1km/h 36% 0.00in /  0mm meteobridge W/m2
11:08 80.1 °F /  26.7 °C 50.7 °F /  10.4 °C 29.69in /  1005.3hPa ENE 0.9mph /  1.4km/h 4.0mph /  6.4km/h 36% 0.00in /  0mm meteobridge W/m2
11:14 81.9 °F /  27.7 °C 50.7 °F /  10.4 °C 29.69in /  1005.3hPa ENE 4.0mph /  6.4km/h 9.0mph /  14.5km/h 34% 0.00in /  0mm meteobridge W/m2
11:20 82.8 °F /  28.2 °C 52.3 °F /  11.3 °C 29.68in /  1005hPa NNE 2.0mph /  3.2km/h 7.0mph /  11.3km/h 35% 0.00in /  0mm meteobridge W/m2
11:26 82.6 °F /  28.1 °C 51.4 °F /  10.8 °C 29.68in /  1005hPa Calm   7.0mph /  11.3km/h 34% 0.00in /  0mm meteobridge W/m2
11:32 82.9 °F /  28.3 °C 51.6 °F /  10.9 °C 29.68in /  1005hPa North 12.1mph /  19.5km/h 12.1mph /  19.5km/h 34% 0.00in /  0mm meteobridge W/m2
11:38 81.3 °F /  27.4 °C 51.1 °F /  10.6 °C 29.68in /  1005hPa North 2.9mph /  4.7km/h 16.0mph /  25.7km/h 35% 0.00in /  0mm meteobridge W/m2
11:51 79.0 °F /  26.1 °C 51.3 °F /  10.7 °C 29.68in /  1005hPa ESE 4.0mph /  6.4km/h 5.0mph /  8km/h 38% 0.00in /  0mm meteobridge W/m2
11:57 79.9 °F /  26.6 °C 51.3 °F /  10.7 °C 29.68in /  1005hPa NE 8.1mph /  13km/h 12.0mph /  19.3km/h 37% 0.00in /  0mm meteobridge W/m2
12:03 79.2 °F /  26.2 °C 51.4 °F /  10.8 °C 29.68in /  1005hPa NE 4.0mph /  6.4km/h 7.0mph /  11.3km/h 38% 0.00in /  0mm meteobridge W/m2
12:09 78.6 °F /  25.9 °C 50.2 °F /  10.1 °C 29.67in /  1004.6hPa ESE 2.0mph /  3.2km/h 10.0mph /  16.1km/h 37% 0.00in /  0mm meteobridge W/m2
12:15 78.6 °F /  25.9 °C 50.2 °F /  10.1 °C 29.68in /  1005hPa SSE 0.9mph /  1.4km/h 4.0mph /  6.4km/h 37% 0.00in /  0mm meteobridge W/m2
12:21 78.6 °F /  25.9 °C 50.9 °F /  10.5 °C 29.67in /  1004.6hPa SSE 2.9mph /  4.7km/h 3.0mph /  4.8km/h 38% 0.00in /  0mm meteobridge W/m2
12:27 78.4 °F /  25.8 °C 50.7 °F /  10.4 °C 29.68in /  1005hPa NNE 4.0mph /  6.4km/h 5.0mph /  8km/h 38% 0.00in /  0mm meteobridge W/m2
12:33 77.7 °F /  25.4 °C 52.2 °F /  11.2 °C 29.68in /  1005hPa South 4.9mph /  7.9km/h 11.0mph /  17.7km/h 41% 0.00in /  0mm meteobridge W/m2
12:39 75.0 °F /  23.9 °C 51.1 °F /  10.6 °C 29.67in /  1004.6hPa SSW 6.9mph /  11.1km/h 7.0mph /  11.3km/h 43% 0.00in /  0mm meteobridge W/m2
12:46 74.5 °F /  23.6 °C 51.1 °F /  10.6 °C 29.67in /  1004.6hPa South 2.0mph /  3.2km/h 6.0mph /  9.7km/h 44% 0.00in /  0mm meteobridge W/m2
12:52 74.5 °F /  23.6 °C 51.8 °F /  11 °C 29.67in /  1004.6hPa SE 4.0mph /  6.4km/h 6.0mph /  9.7km/h 45% 0.00in /  0mm meteobridge W/m2
12:58 74.7 °F /  23.7 °C 52.5 °F /  11.4 °C 29.67in /  1004.6hPa SSE 4.0mph /  6.4km/h 7.0mph /  11.3km/h 46% 0.00in /  0mm meteobridge W/m2
13:04 75.0 °F /  23.9 °C 51.6 °F /  10.9 °C 29.67in /  1004.6hPa South 4.9mph /  7.9km/h 7.0mph /  11.3km/h 44% 0.00in /  0mm meteobridge W/m2
13:10 75.2 °F /  24 °C 50.5 °F /  10.3 °C 29.67in /  1004.6hPa SSE 4.0mph /  6.4km/h 8.0mph /  12.9km/h 42% 0.00in /  0mm meteobridge W/m2
13:16 75.7 °F /  24.3 °C 50.4 °F /  10.2 °C 29.67in /  1004.6hPa SSE 4.9mph /  7.9km/h 6.0mph /  9.7km/h 41% 0.00in /  0mm meteobridge W/m2
13:22 79.2 °F /  26.2 °C 50.7 °F /  10.4 °C 29.66in /  1004.3hPa South 4.0mph /  6.4km/h 9.0mph /  14.5km/h 37% 0.00in /  0mm meteobridge W/m2
13:28 77.7 °F /  25.4 °C 50.7 °F /  10.4 °C 29.66in /  1004.3hPa South 10.1mph /  16.3km/h 17.0mph /  27.4km/h 39% 0.00in /  0mm meteobridge W/m2
13:34 76.5 °F /  24.7 °C 50.4 °F /  10.2 °C 29.66in /  1004.3hPa SSW 6.0mph /  9.7km/h 13.0mph /  20.9km/h 40% 0.00in /  0mm meteobridge W/m2
13:40 76.8 °F /  24.9 °C 50.0 °F /  10 °C 29.65in /  1003.9hPa South 4.9mph /  7.9km/h 13.0mph /  20.9km/h 39% 0.00in /  0mm meteobridge W/m2
13:46 78.3 °F /  25.7 °C 50.5 °F /  10.3 °C 29.65in /  1003.9hPa SSW 12.1mph /  19.5km/h 15.0mph /  24.1km/h 38% 0.00in /  0mm meteobridge W/m2
13:53 76.6 °F /  24.8 °C 49.8 °F /  9.9 °C 29.65in /  1003.9hPa SSW 4.0mph /  6.4km/h 12.0mph /  19.3km/h 39% 0.00in /  0mm meteobridge W/m2
13:59 76.6 °F /  24.8 °C 49.8 °F /  9.9 °C 29.65in /  1003.9hPa SSW 8.1mph /  13km/h 11.0mph /  17.7km/h 39% 0.00in /  0mm meteobridge W/m2
14:05 76.5 °F /  24.7 °C 49.6 °F /  9.8 °C 29.65in /  1003.9hPa SSW 2.0mph /  3.2km/h 10.0mph /  16.1km/h 39% 0.00in /  0mm meteobridge W/m2
14:17 77.2 °F /  25.1 °C 49.6 °F /  9.8 °C 29.65in /  1003.9hPa South 4.0mph /  6.4km/h 8.0mph /  12.9km/h 38% 0.00in /  0mm meteobridge W/m2
14:23 76.5 °F /  24.7 °C 49.6 °F /  9.8 °C 29.65in /  1003.9hPa SSW 2.0mph /  3.2km/h 11.0mph /  17.7km/h 39% 0.00in /  0mm meteobridge W/m2
14:29 76.1 °F /  24.5 °C 49.3 °F /  9.6 °C 29.66in /  1004.3hPa WSW 2.9mph /  4.7km/h 6.0mph /  9.7km/h 39% 0.00in /  0mm meteobridge W/m2
14:35 74.7 °F /  23.7 °C 51.3 °F /  10.7 °C 29.67in /  1004.6hPa South 15.0mph /  24.1km/h 17.0mph /  27.4km/h 44% 0.00in /  0mm meteobridge W/m2
14:41 73.2 °F /  22.9 °C 51.8 °F /  11 °C 29.67in /  1004.6hPa South 2.9mph /  4.7km/h 5.0mph /  8km/h 47% 0.00in /  0mm meteobridge W/m2
14:47 73.0 °F /  22.8 °C 52.2 °F /  11.2 °C 29.67in /  1004.6hPa South 16.1mph /  25.9km/h 16.1mph /  25.9km/h 48% 0.00in /  0mm meteobridge W/m2
14:53 72.1 °F /  22.3 °C 53.1 °F /  11.7 °C 29.67in /  1004.6hPa SSW 4.0mph /  6.4km/h 7.0mph /  11.3km/h 51% 0.00in /  0mm meteobridge W/m2
14:59 71.2 °F /  21.8 °C 53.2 °F /  11.8 °C 29.67in /  1004.6hPa SSW 4.0mph /  6.4km/h 11.0mph /  17.7km/h 53% 0.00in /  0mm meteobridge W/m2
15:08 71.4 °F /  21.9 °C 51.3 °F /  10.7 °C 29.66in /  1004.3hPa SSE 4.0mph /  6.4km/h 13.0mph /  20.9km/h 49% 0.00in /  0mm meteobridge W/m2
15:14 72.5 °F /  22.5 °C 52.3 °F /  11.3 °C 29.67in /  1004.6hPa SW 0.9mph /  1.4km/h 3.0mph /  4.8km/h 49% 0.00in /  0mm meteobridge W/m2
15:30 72.9 °F /  22.7 °C 52.0 °F /  11.1 °C 29.65in /  1003.9hPa SSE 8.9mph /  14.3km/h 10.0mph /  16.1km/h 48% 0.00in /  0mm meteobridge W/m2
15:36 72.0 °F /  22.2 °C 52.3 °F /  11.3 °C 29.65in /  1003.9hPa SSE 11.0mph /  17.7km/h 17.0mph /  27.4km/h 50% 0.00in /  0mm meteobridge W/m2
15:43 72.5 °F /  22.5 °C 54.0 °F /  12.2 °C 29.65in /  1003.9hPa South 14.1mph /  22.7km/h 15.0mph /  24.1km/h 52% 0.00in /  0mm meteobridge W/m2
15:49 71.6 °F /  22 °C 53.1 °F /  11.7 °C 29.65in /  1003.9hPa South 11.0mph /  17.7km/h 13.0mph /  20.9km/h 52% 0.00in /  0mm meteobridge W/m2
15:55 71.1 °F /  21.7 °C 52.0 °F /  11.1 °C 29.66in /  1004.3hPa South 8.1mph /  13km/h 13.0mph /  20.9km/h 51% 0.00in /  0mm meteobridge W/m2
16:01 71.2 °F /  21.8 °C 51.6 °F /  10.9 °C 29.66in /  1004.3hPa South 4.0mph /  6.4km/h 14.0mph /  22.5km/h 50% 0.00in /  0mm meteobridge W/m2
16:07 73.4 °F /  23 °C 52.5 °F /  11.4 °C 29.65in /  1003.9hPa South 2.0mph /  3.2km/h 9.0mph /  14.5km/h 48% 0.00in /  0mm meteobridge W/m2
16:29 75.2 °F /  24 °C 51.1 °F /  10.6 °C 29.65in /  1003.9hPa South 6.9mph /  11.1km/h 14.0mph /  22.5km/h 43% 0.00in /  0mm meteobridge W/m2
16:38 75.2 °F /  24 °C 49.8 °F /  9.9 °C 29.64in /  1003.6hPa SSE 8.9mph /  14.3km/h 12.0mph /  19.3km/h 41% 0.00in /  0mm meteobridge W/m2
16:44 75.2 °F /  24 °C 50.5 °F /  10.3 °C 29.65in /  1003.9hPa SSW 4.0mph /  6.4km/h 10.0mph /  16.1km/h 42% 0.00in /  0mm meteobridge W/m2
16:50 75.0 °F /  23.9 °C 50.4 °F /  10.2 °C 29.64in /  1003.6hPa South 4.9mph /  7.9km/h 7.0mph /  11.3km/h 42% 0.00in /  0mm meteobridge W/m2
16:56 73.9 °F /  23.3 °C 50.0 °F /  10 °C 29.64in /  1003.6hPa South 6.0mph /  9.7km/h 8.0mph /  12.9km/h 43% 0.00in /  0mm meteobridge W/m2
17:02 73.8 °F /  23.2 °C 49.8 °F /  9.9 °C 29.64in /  1003.6hPa South 2.9mph /  4.7km/h 5.0mph /  8km/h 43% 0.00in /  0mm meteobridge W/m2
17:08 74.1 °F /  23.4 °C 49.6 °F /  9.8 °C 29.64in /  1003.6hPa SSW 4.0mph /  6.4km/h 5.0mph /  8km/h 42% 0.00in /  0mm meteobridge W/m2
17:18 74.5 °F /  23.6 °C 49.8 °F /  9.9 °C 29.65in /  1003.9hPa SSE 6.9mph /  11.1km/h 12.0mph /  19.3km/h 42% 0.00in /  0mm meteobridge W/m2
17:25 74.3 °F /  23.5 °C 49.1 °F /  9.5 °C 29.65in /  1003.9hPa Calm   9.0mph /  14.5km/h 41% 0.00in /  0mm meteobridge W/m2
17:31 73.9 °F /  23.3 °C 50.0 °F /  10 °C 29.65in /  1003.9hPa South 0.9mph /  1.4km/h 6.0mph /  9.7km/h 43% 0.00in /  0mm meteobridge W/m2
17:37 73.6 °F /  23.1 °C 50.4 °F /  10.2 °C 29.65in /  1003.9hPa South 4.0mph /  6.4km/h 10.0mph /  16.1km/h 44% 0.00in /  0mm meteobridge W/m2
17:43 72.9 °F /  22.7 °C 49.6 °F /  9.8 °C 29.66in /  1004.3hPa SSE 2.0mph /  3.2km/h 7.0mph /  11.3km/h 44% 0.00in /  0mm meteobridge W/m2
17:49 72.7 °F /  22.6 °C 50.7 °F /  10.4 °C 29.66in /  1004.3hPa South 8.9mph /  14.3km/h 10.0mph /  16.1km/h 46% 0.00in /  0mm meteobridge W/m2
17:59 72.0 °F /  22.2 °C 50.0 °F /  10 °C 29.65in /  1003.9hPa SSE 2.0mph /  3.2km/h 7.0mph /  11.3km/h 46% 0.00in /  0mm meteobridge W/m2
18:05 72.3 °F /  22.4 °C 49.8 °F /  9.9 °C 29.65in /  1003.9hPa South 2.9mph /  4.7km/h 5.0mph /  8km/h 45% 0.00in /  0mm meteobridge W/m2
18:11 73.0 °F /  22.8 °C 49.8 °F /  9.9 °C 29.65in /  1003.9hPa South 2.0mph /  3.2km/h 5.0mph /  8km/h 44% 0.00in /  0mm meteobridge W/m2
18:17 74.1 °F /  23.4 °C 50.2 °F /  10.1 °C 29.65in /  1003.9hPa WSW 2.9mph /  4.7km/h 9.0mph /  14.5km/h 43% 0.00in /  0mm meteobridge W/m2
18:24 74.7 °F /  23.7 °C 50.0 °F /  10 °C 29.67in /  1004.6hPa SW 4.0mph /  6.4km/h 8.0mph /  12.9km/h 42% 0.00in /  0mm meteobridge W/m2
18:30 74.7 °F /  23.7 °C 50.0 °F /  10 °C 29.68in /  1005hPa SSE 6.9mph /  11.1km/h 7.0mph /  11.3km/h 42% 0.00in /  0mm meteobridge W/m2
18:36 74.8 °F /  23.8 °C 50.9 °F /  10.5 °C 29.69in /  1005.3hPa SE 0.9mph /  1.4km/h 6.0mph /  9.7km/h 43% 0.00in /  0mm meteobridge W/m2
18:42 75.7 °F /  24.3 °C 50.4 °F /  10.2 °C 29.69in /  1005.3hPa SSE 2.0mph /  3.2km/h 7.0mph /  11.3km/h 41% 0.00in /  0mm meteobridge W/m2
18:48 76.5 °F /  24.7 °C 51.6 °F /  10.9 °C 29.68in /  1005hPa South 4.9mph /  7.9km/h 8.0mph /  12.9km/h 42% 0.00in /  0mm meteobridge W/m2
18:54 75.7 °F /  24.3 °C 51.6 °F /  10.9 °C 29.65in /  1003.9hPa South 2.9mph /  4.7km/h 9.0mph /  14.5km/h 43% 0.00in /  0mm meteobridge W/m2
19:00 75.4 °F /  24.1 °C 52.0 °F /  11.1 °C 29.67in /  1004.6hPa SSE 6.0mph /  9.7km/h 13.0mph /  20.9km/h 44% 0.00in /  0mm meteobridge W/m2
19:06 74.7 °F /  23.7 °C 52.0 °F /  11.1 °C 29.68in /  1005hPa South 6.9mph /  11.1km/h 10.0mph /  16.1km/h 45% 0.00in /  0mm meteobridge W/m2
19:12 74.7 °F /  23.7 °C 52.5 °F /  11.4 °C 29.69in /  1005.3hPa South 8.9mph /  14.3km/h 11.0mph /  17.7km/h 46% 0.00in /  0mm meteobridge W/m2
19:25 73.8 °F /  23.2 °C 51.1 °F /  10.6 °C 29.70in /  1005.6hPa SSW 4.0mph /  6.4km/h 4.0mph /  6.4km/h 45% 0.00in /  0mm meteobridge W/m2
19:31 73.8 °F /  23.2 °C 51.1 °F /  10.6 °C 29.70in /  1005.6hPa SSW 4.0mph /  6.4km/h -999.0mph /  -1607.7km/h 45% 0.00in /  0mm meteobridge W/m2
19:37 73.8 °F /  23.2 °C 51.1 °F /  10.6 °C 29.70in /  1005.6hPa SSW 4.0mph /  6.4km/h -999.0mph /  -1607.7km/h 45% 0.00in /  0mm meteobridge W/m2
Regenstein, Windhoek, Namibia
Compliments of Weather Underground - 2.5 mb